Aérodrome :







RETROUVEZ-NOUS SUR...

 
LOGIN :

S'inscrire | Disclaimer

   EN    FR    IT 

 









Légende :    VFR   VFR Marginal   IFR   IFR Intensif   IFR Très Intensif
Visi : 
Plafond : 
>= 8 km
>= 3000ft
5 à 8 km
1000 à 3000 ft
1500m à 5 km
500 à 1000 ft
800 à 1500m
200 à 500 ft
< 800m
< 200 ft
Symboles :   Orages  Brouillard  Fortes neiges  Fortes précipitations  Vent > 20 kt






- Altitude de l'aérodrome : 124 ft
- Code IATA : YGV


CYGV - Havre St Pierre

DERNIER METAR :
  • 290900Z AUTO 04005KT 9SM SCT100 M10/M14 A3028 RMK SLP257

METARs EXPIRÉS :
  • 290800Z AUTO 35005KT 9SM BKN110 OVC130 M08/M12 A3026 RMK SLP251
  • 290700Z AUTO 35003KT 9SM FEW130 M10/M14 A3024 RMK SLP244

TAF TAF CYGV
Valide du 29 à 08h jusqu'au 29 à 20h UTC


290738Z 2908/2920 VRB03KT P6SM SCT050 RMK FCST BASED ON AUTO OBS. NXT FCST BY 291400Z



MET'MAP, la Météo Aéronautique d'un coup d'oeil ! - Copyright ORBIFLY Décembre 2007 - Disclaimer

ORBIFLY MET'MAP TEAM :

Programmation & Développement : Alexandra Zaïnal
Sur une idée originale de : Baudouin d'Aumeries
Assistance à la programmation : Marc-Olivier Méhu
Soutien technique & logistique : Manuel Goepfert

Contact : metmap@orbifly.com




SOURCES & CREDITS :

   NOAA